createdAt,value
2018-11-05T00:01:44.706Z,4.07
2018-11-05T00:04:14.675Z,4.23
2018-11-05T00:06:44.634Z,4.30
2018-11-05T00:09:14.633Z,3.80
2018-11-05T00:11:44.621Z,4.07
2018-11-05T00:14:14.699Z,4.13
2018-11-05T00:16:44.684Z,3.57
2018-11-05T00:19:14.675Z,3.67
2018-11-05T00:21:44.654Z,3.60
2018-11-05T00:24:14.647Z,4.57
2018-11-05T00:26:44.817Z,4.33
2018-11-05T00:29:14.942Z,4.30
2018-11-05T00:31:44.879Z,5.17
2018-11-05T00:34:14.858Z,4.77
2018-11-05T00:36:44.818Z,4.57
2018-11-05T00:39:14.786Z,3.83
2018-11-05T00:41:44.734Z,4.40
2018-11-05T00:44:14.721Z,4.03
2018-11-05T00:46:44.712Z,4.00
2018-11-05T00:49:14.688Z,3.70
2018-11-05T00:51:44.672Z,4.27
2018-11-05T00:54:14.618Z,3.93
2018-11-05T00:56:44.705Z,4.63
2018-11-05T00:59:14.726Z,4.37
2018-11-05T01:01:44.659Z,4.43
2018-11-05T01:04:14.623Z,4.47
2018-11-05T01:06:44.595Z,4.77
2018-11-05T01:09:14.625Z,4.10
2018-11-05T01:11:44.614Z,4.27
2018-11-05T01:14:14.622Z,3.30
2018-11-05T01:16:44.579Z,4.30
2018-11-05T01:19:14.692Z,5.20
2018-11-05T01:21:44.662Z,3.90
2018-11-05T01:24:14.622Z,3.57
2018-11-05T01:26:44.595Z,4.13
2018-11-05T01:29:14.552Z,4.50
2018-11-05T01:31:44.736Z,4.20
2018-11-05T01:34:14.768Z,3.50
2018-11-05T01:36:44.701Z,3.97
2018-11-05T01:39:14.763Z,4.93
2018-11-05T01:41:44.763Z,5.07
2018-11-05T01:44:14.770Z,4.77
2018-11-05T01:46:44.743Z,4.87
2018-11-05T01:49:14.711Z,4.80
2018-11-05T01:51:44.780Z,4.80
2018-11-05T01:54:14.779Z,4.80
2018-11-05T01:56:44.736Z,5.13
2018-11-05T01:59:14.755Z,4.53
2018-11-05T02:01:44.756Z,4.97
2018-11-05T02:04:14.721Z,4.70
2018-11-05T02:06:44.874Z,5.40
2018-11-05T02:09:14.870Z,5.33
2018-11-05T02:11:44.771Z,5.13
2018-11-05T02:14:14.742Z,4.30
2018-11-05T02:16:44.709Z,5.20
2018-11-05T02:19:14.719Z,5.13
2018-11-05T02:21:44.743Z,4.90
2018-11-05T02:24:14.733Z,4.90
2018-11-05T02:26:44.646Z,4.73
2018-11-05T02:29:14.666Z,5.40
2018-11-05T02:31:44.643Z,5.30
2018-11-05T02:34:14.598Z,5.03
2018-11-05T02:36:44.623Z,4.90
2018-11-05T02:39:14.560Z,6.20
2018-11-05T02:41:44.524Z,5.87
2018-11-05T02:44:14.486Z,5.43
2018-11-05T02:46:44.521Z,6.27
2018-11-05T02:49:14.809Z,4.93
2018-11-05T02:51:44.814Z,5.87
2018-11-05T02:54:14.807Z,5.13
2018-11-05T02:56:44.764Z,4.93
2018-11-05T02:59:15.038Z,5.57
2018-11-05T03:01:45.034Z,5.20
2018-11-05T03:04:15.088Z,6.37
2018-11-05T03:06:45.043Z,5.70
2018-11-05T03:09:15.003Z,5.53
2018-11-05T03:11:44.980Z,5.93
2018-11-05T03:14:14.984Z,5.93
2018-11-05T03:16:44.953Z,5.37
2018-11-05T03:19:15.044Z,5.70
2018-11-05T03:21:45.001Z,5.60
2018-11-05T03:24:14.990Z,5.43
2018-11-05T03:26:44.944Z,5.80
2018-11-05T03:29:14.949Z,5.50
2018-11-05T03:31:44.916Z,5.47
2018-11-05T03:34:14.867Z,5.50
2018-11-05T03:36:44.801Z,5.07
2018-11-05T03:39:14.833Z,5.57
2018-11-05T03:41:44.827Z,5.50
2018-11-05T03:44:14.848Z,5.13
2018-11-05T03:46:44.887Z,5.73
2018-11-05T03:49:15.061Z,5.33
2018-11-05T03:51:44.998Z,5.83
2018-11-05T03:54:15.110Z,6.40
2018-11-05T03:56:45.150Z,5.30
2018-11-05T03:59:15.068Z,5.90
2018-11-05T04:01:45.040Z,5.00
2018-11-05T04:04:15.029Z,6.13
2018-11-05T04:06:44.994Z,5.80
2018-11-05T04:09:15.876Z,6.03
2018-11-05T04:11:45.817Z,5.47
2018-11-05T04:14:15.812Z,5.33
2018-11-05T04:16:45.779Z,5.17
2018-11-05T04:19:15.755Z,4.90
2018-11-05T04:21:46.142Z,5.80
2018-11-05T04:24:16.481Z,5.90
2018-11-05T04:26:46.809Z,5.37
2018-11-05T04:29:16.811Z,4.77
2018-11-05T04:31:46.824Z,5.97
2018-11-05T04:34:16.795Z,5.53
2018-11-05T04:36:46.827Z,5.43
2018-11-05T04:39:17.223Z,5.73
2018-11-05T04:41:47.200Z,5.27
2018-11-05T04:44:17.167Z,5.63
2018-11-05T04:46:47.170Z,5.03
2018-11-05T04:49:17.176Z,5.27
2018-11-05T04:51:47.160Z,5.53
2018-11-05T04:54:17.160Z,6.43
2018-11-05T04:56:47.139Z,5.67
2018-11-05T04:59:17.149Z,5.73
2018-11-05T05:01:47.134Z,5.37
2018-11-05T05:04:17.120Z,5.70
2018-11-05T05:06:47.083Z,6.30
2018-11-05T05:09:17.083Z,5.37
2018-11-05T05:11:47.067Z,6.03
2018-11-05T05:14:17.023Z,6.13
2018-11-05T05:16:46.986Z,5.67
2018-11-05T05:19:16.991Z,5.23
2018-11-05T05:21:46.984Z,6.03
2018-11-05T05:24:16.973Z,5.97
2018-11-05T05:26:46.913Z,5.67
2018-11-05T05:29:16.931Z,5.60
2018-11-05T05:31:46.959Z,4.97
2018-11-05T05:34:16.946Z,5.80
2018-11-05T05:36:46.900Z,5.43
2018-11-05T05:39:16.905Z,4.83
2018-11-05T05:41:46.859Z,5.20
2018-11-05T05:44:16.856Z,5.37
2018-11-05T05:46:46.811Z,6.10
2018-11-05T05:49:16.776Z,5.40
2018-11-05T05:51:46.767Z,5.93
2018-11-05T05:54:16.783Z,6.03
2018-11-05T05:56:46.758Z,5.93
2018-11-05T05:59:16.773Z,5.50
2018-11-05T06:01:46.719Z,5.70
2018-11-05T06:04:16.738Z,5.60
2018-11-05T06:06:46.812Z,6.13
2018-11-05T06:09:16.835Z,5.67
2018-11-05T06:11:46.815Z,6.00
2018-11-05T06:14:16.703Z,5.40
2018-11-05T06:16:46.672Z,6.70
2018-11-05T06:19:16.642Z,5.10
2018-11-05T06:21:46.672Z,5.70
2018-11-05T06:24:16.690Z,6.33
2018-11-05T06:26:46.834Z,5.40
2018-11-05T06:29:16.793Z,5.87
2018-11-05T06:31:46.796Z,6.10
2018-11-05T06:34:16.750Z,6.70
2018-11-05T06:36:46.783Z,5.40
2018-11-05T06:39:16.736Z,6.13
2018-11-05T06:41:46.792Z,5.60
2018-11-05T06:44:16.692Z,5.53
2018-11-05T06:46:46.676Z,6.37
2018-11-05T06:49:16.720Z,5.60
2018-11-05T06:51:46.705Z,5.77
2018-11-05T06:54:16.694Z,5.90
2018-11-05T06:56:46.616Z,6.17
2018-11-05T06:59:16.530Z,5.70
2018-11-05T07:01:46.522Z,4.97
2018-11-05T07:04:16.470Z,4.77
2018-11-05T07:06:46.426Z,5.57
2018-11-05T07:09:16.371Z,6.00
2018-11-05T07:11:46.296Z,4.97
2018-11-05T07:14:16.283Z,5.97
2018-11-05T07:16:46.199Z,5.43
2018-11-05T07:19:16.344Z,5.37
2018-11-05T07:21:46.117Z,5.93
2018-11-05T07:24:16.256Z,6.00
2018-11-05T07:26:46.782Z,5.00
2018-11-05T07:29:16.659Z,5.07
2018-11-05T07:31:46.604Z,5.77
2018-11-05T07:34:16.628Z,5.63
2018-11-05T07:36:46.563Z,6.00
2018-11-05T07:39:16.582Z,6.07
2018-11-05T07:41:46.489Z,4.77
2018-11-05T07:44:16.460Z,5.57
2018-11-05T07:46:46.389Z,5.50
2018-11-05T07:49:16.289Z,6.67
2018-11-05T07:51:46.265Z,5.93
2018-11-05T07:54:16.245Z,6.03
2018-11-05T07:56:46.289Z,6.00
2018-11-05T07:59:16.161Z,6.50
2018-11-05T08:01:46.131Z,5.70
2018-11-05T08:04:16.108Z,5.60
2018-11-05T08:06:46.080Z,5.83
2018-11-05T08:09:16.038Z,5.70
2018-11-05T08:11:45.978Z,5.97
2018-11-05T08:14:16.265Z,6.00
2018-11-05T08:16:46.156Z,7.00
2018-11-05T08:19:16.106Z,5.70
2018-11-05T08:21:46.060Z,5.73
2018-11-05T08:24:16.021Z,6.23
2018-11-05T08:26:45.967Z,6.10
2018-11-05T08:29:15.934Z,6.53
2018-11-05T08:31:45.851Z,5.70
2018-11-05T08:34:15.745Z,6.30
2018-11-05T08:36:45.696Z,6.50
2018-11-05T08:39:16.075Z,6.23
2018-11-05T08:41:46.004Z,6.33
2018-11-05T08:44:16.035Z,5.67
2018-11-05T08:46:46.043Z,6.30
2018-11-05T08:49:15.933Z,6.20
2018-11-05T08:51:46.136Z,5.90
2018-11-05T08:54:16.184Z,6.10
2018-11-05T08:56:45.940Z,6.50
2018-11-05T08:59:15.846Z,6.73
2018-11-05T09:01:45.712Z,7.10
2018-11-05T09:04:15.641Z,7.07
2018-11-05T09:06:45.562Z,6.40
2018-11-05T09:09:15.583Z,6.63
2018-11-05T09:11:45.698Z,6.13
2018-11-05T09:14:15.447Z,6.37
2018-11-05T09:16:45.438Z,7.20
2018-11-05T09:19:15.504Z,6.93
2018-11-05T09:21:45.442Z,7.57
2018-11-05T09:24:15.365Z,6.50
2018-11-05T09:26:45.657Z,6.63
2018-11-05T09:29:15.626Z,7.47
2018-11-05T09:31:45.546Z,7.53
2018-11-05T09:34:15.505Z,6.23
2018-11-05T09:36:45.474Z,6.70
2018-11-05T09:39:15.504Z,6.60
2018-11-05T09:41:45.474Z,6.80
2018-11-05T09:44:15.394Z,7.13
2018-11-05T09:46:45.427Z,7.13
2018-11-05T09:49:15.393Z,6.83
2018-11-05T09:51:45.366Z,6.73
2018-11-05T09:54:15.322Z,6.50
2018-11-05T09:56:45.406Z,7.37
2018-11-05T09:59:15.617Z,6.57
2018-11-05T10:01:45.592Z,6.43
2018-11-05T10:04:15.634Z,6.50
2018-11-05T10:06:45.439Z,6.53
2018-11-05T10:09:15.516Z,7.10
2018-11-05T10:11:45.472Z,6.87
2018-11-05T10:14:15.376Z,7.07
2018-11-05T10:16:45.327Z,6.60
2018-11-05T10:19:15.297Z,7.40
2018-11-05T10:21:45.184Z,7.30
2018-11-05T10:24:15.166Z,6.73
2018-11-05T10:26:45.106Z,6.77
2018-11-05T10:29:15.693Z,6.77
2018-11-05T10:31:45.607Z,7.00
2018-11-05T10:34:15.554Z,7.53
2018-11-05T10:36:45.487Z,6.87
2018-11-05T10:39:15.322Z,7.17
2018-11-05T10:41:45.247Z,6.83
2018-11-05T10:44:15.270Z,6.83
2018-11-05T10:46:45.191Z,7.13
2018-11-05T10:49:15.783Z,6.70
2018-11-05T10:51:45.708Z,6.60
2018-11-05T10:54:16.187Z,7.10
2018-11-05T10:56:46.171Z,6.60
2018-11-05T10:59:16.077Z,7.50
2018-11-05T11:01:51.123Z,6.77
2018-11-05T11:04:25.877Z,6.67
2018-11-05T11:06:55.673Z,6.60
2018-11-05T11:09:25.605Z,6.53
2018-11-05T11:11:55.533Z,7.57
2018-11-05T11:14:25.495Z,7.23
2018-11-05T11:16:55.475Z,7.10
2018-11-05T11:19:25.436Z,6.47
2018-11-05T11:21:55.443Z,6.40
2018-11-05T11:24:25.284Z,6.60
2018-11-05T11:26:55.335Z,6.67
2018-11-05T11:29:25.380Z,6.87
2018-11-05T11:31:55.262Z,6.37
2018-11-05T11:34:25.196Z,6.70
2018-11-05T11:36:55.156Z,6.30
2018-11-05T11:39:25.082Z,7.23
2018-11-05T11:41:55.257Z,7.57
2018-11-05T11:44:25.233Z,7.03
2018-11-05T11:46:55.180Z,6.67
2018-11-05T11:49:25.498Z,6.63
2018-11-05T11:51:55.413Z,6.60
2018-11-05T11:54:25.559Z,6.83
2018-11-05T11:56:56.020Z,6.67
2018-11-05T11:59:26.141Z,6.97
2018-11-05T12:02:01.153Z,6.27
2018-11-05T12:04:31.167Z,6.57
2018-11-05T12:07:01.066Z,6.97
2018-11-05T12:09:31.031Z,6.40
2018-11-05T12:12:00.995Z,6.37
2018-11-05T12:14:30.996Z,6.63
2018-11-05T12:17:00.930Z,7.27
2018-11-05T12:19:30.872Z,7.23
2018-11-05T12:22:00.851Z,7.10
2018-11-05T12:24:30.735Z,6.57
2018-11-05T12:27:01.044Z,7.27
2018-11-05T12:29:31.982Z,7.30
2018-11-05T12:32:02.013Z,7.03
2018-11-05T12:34:32.008Z,8.07
2018-11-05T12:37:01.979Z,7.73
2018-11-05T12:39:31.922Z,7.83
2018-11-05T12:42:01.784Z,7.17
2018-11-05T12:44:31.784Z,7.60
2018-11-05T12:47:01.688Z,7.20
2018-11-05T12:49:31.699Z,7.07
2018-11-05T12:52:01.663Z,8.73
2018-11-05T12:54:31.616Z,8.57
2018-11-05T12:57:01.628Z,7.50
2018-11-05T12:59:31.612Z,6.87
2018-11-05T13:02:01.597Z,8.23
2018-11-05T13:04:31.532Z,8.53
2018-11-05T13:07:01.563Z,10.40
2018-11-05T13:09:31.478Z,8.17
2018-11-05T13:12:01.509Z,6.77
2018-11-05T13:14:31.467Z,8.00
2018-11-05T13:17:01.432Z,7.50
2018-11-05T13:19:31.388Z,8.20
2018-11-05T13:22:01.385Z,7.70
2018-11-05T13:24:31.355Z,7.80
2018-11-05T13:27:01.337Z,7.50
2018-11-05T13:29:31.306Z,7.17
2018-11-05T13:32:01.236Z,7.60
2018-11-05T13:34:31.201Z,9.40
2018-11-05T13:37:01.356Z,9.67
2018-11-05T13:39:31.103Z,10.90
2018-11-05T13:42:01.068Z,8.33
2018-11-05T13:44:31.043Z,8.13
2018-11-05T13:47:01.275Z,7.50
2018-11-05T13:49:31.054Z,7.73
2018-11-05T13:52:00.929Z,7.23
2018-11-05T13:54:30.885Z,6.60
2018-11-05T13:57:00.867Z,7.20
2018-11-05T13:59:30.959Z,7.37
2018-11-05T14:02:00.908Z,7.30
2018-11-05T14:04:31.651Z,7.80
2018-11-05T14:07:01.602Z,7.47
2018-11-05T14:09:31.541Z,7.80
2018-11-05T14:12:01.536Z,7.40
2018-11-05T14:14:31.557Z,7.97
2018-11-05T14:17:01.486Z,9.77
2018-11-05T14:19:31.447Z,9.03
2018-11-05T14:22:01.434Z,8.13
2018-11-05T14:24:31.318Z,8.07
2018-11-05T14:27:01.282Z,7.13
2018-11-05T14:29:31.664Z,7.30
2018-11-05T14:32:01.197Z,7.60
2018-11-05T14:34:31.186Z,7.60
2018-11-05T14:37:01.127Z,8.13
2018-11-05T14:39:31.000Z,7.67
2018-11-05T14:42:00.928Z,7.83
2018-11-05T14:44:30.917Z,8.37
2018-11-05T14:47:00.832Z,7.80
2018-11-05T14:49:30.778Z,7.67
2018-11-05T14:52:00.684Z,7.20
2018-11-05T14:54:30.650Z,7.53
2018-11-05T14:57:00.633Z,7.67
2018-11-05T14:59:30.622Z,7.53
2018-11-05T15:02:05.613Z,7.63
2018-11-05T15:04:35.569Z,7.50
2018-11-05T15:07:05.672Z,7.43
2018-11-05T15:09:35.680Z,7.43
2018-11-05T15:12:05.896Z,7.93
2018-11-05T15:14:36.420Z,8.03
2018-11-05T15:17:07.054Z,7.43
2018-11-05T15:19:37.322Z,7.67
2018-11-05T15:22:06.985Z,7.37
2018-11-05T15:24:36.956Z,7.03
2018-11-05T15:27:06.976Z,7.57
2018-11-05T15:29:36.874Z,8.27
2018-11-05T15:32:07.764Z,7.57
2018-11-05T15:34:37.666Z,7.80
2018-11-05T15:37:07.654Z,7.90
2018-11-05T15:39:37.621Z,8.00
2018-11-05T15:42:07.919Z,8.17
2018-11-05T15:44:37.950Z,8.60
2018-11-05T15:47:07.869Z,7.93
2018-11-05T15:49:37.857Z,8.10
2018-11-05T15:52:08.057Z,8.43
2018-11-05T15:54:37.869Z,10.87
2018-11-05T15:57:08.291Z,9.90
2018-11-05T15:59:38.267Z,9.07
2018-11-05T16:02:11.236Z,8.63
2018-11-05T16:04:42.229Z,8.37
2018-11-05T16:07:12.198Z,8.40
2018-11-05T16:09:42.169Z,9.03
2018-11-05T16:12:12.116Z,8.40
2018-11-05T16:14:42.087Z,7.70
2018-11-05T16:17:12.041Z,9.23
2018-11-05T16:19:42.023Z,8.23
2018-11-05T16:22:12.005Z,7.60
2018-11-05T16:24:41.990Z,7.43
2018-11-05T16:27:11.961Z,8.47
2018-11-05T16:29:41.964Z,7.83
2018-11-05T16:32:12.043Z,7.33
2018-11-05T16:34:41.908Z,7.93
2018-11-05T16:37:11.898Z,8.07
2018-11-05T16:39:41.977Z,8.60
2018-11-05T16:42:11.787Z,7.47
2018-11-05T16:44:41.766Z,7.80
2018-11-05T16:47:12.099Z,9.30
2018-11-05T16:49:41.998Z,8.17
2018-11-05T16:52:12.267Z,9.60
2018-11-05T16:54:42.243Z,10.03
2018-11-05T16:57:12.238Z,10.00
2018-11-05T16:59:42.280Z,11.30
2018-11-05T17:02:14.227Z,9.63
2018-11-05T17:04:45.398Z,9.53
2018-11-05T17:07:15.592Z,10.17
2018-11-05T17:09:45.559Z,9.07
2018-11-05T17:12:15.552Z,9.23
2018-11-05T17:14:45.504Z,10.93
2018-11-05T17:17:15.470Z,11.57
2018-11-05T17:19:45.441Z,10.97
2018-11-05T17:22:15.465Z,10.90
2018-11-05T17:24:45.447Z,9.30
2018-11-05T17:27:15.479Z,7.97
2018-11-05T17:29:45.598Z,7.80
2018-11-05T17:32:15.567Z,7.90
2018-11-05T17:34:45.579Z,7.47
2018-11-05T17:37:15.688Z,6.73
2018-11-05T17:39:45.663Z,7.03
2018-11-05T17:42:15.645Z,7.40
2018-11-05T17:44:45.626Z,6.97
2018-11-05T17:47:15.676Z,6.97
2018-11-05T17:49:45.622Z,7.53
2018-11-05T17:52:15.628Z,7.60
2018-11-05T17:54:45.773Z,8.47
2018-11-05T17:57:15.771Z,7.93
2018-11-05T17:59:45.774Z,7.50
2018-11-05T18:02:18.910Z,7.60
2018-11-05T18:04:48.938Z,6.60
2018-11-05T18:07:18.896Z,7.90
2018-11-05T18:09:48.910Z,8.37
2018-11-05T18:12:18.909Z,9.80
2018-11-05T18:14:48.864Z,8.90
2018-11-05T18:17:18.859Z,8.23
2018-11-05T18:19:48.837Z,8.10
2018-11-05T18:22:18.816Z,8.07
2018-11-05T18:24:48.851Z,8.77
2018-11-05T18:27:18.880Z,8.93
2018-11-05T18:29:48.882Z,8.70
2018-11-05T18:32:20.841Z,8.30
2018-11-05T18:34:52.495Z,7.30
2018-11-05T18:37:22.405Z,7.30
2018-11-05T18:39:52.369Z,8.50
2018-11-05T18:42:22.329Z,8.07
2018-11-05T18:44:52.311Z,7.63
2018-11-05T18:47:22.375Z,8.97
2018-11-05T18:49:52.388Z,8.83
2018-11-05T18:52:22.444Z,8.17
2018-11-05T18:54:52.360Z,8.03
2018-11-05T18:57:22.279Z,7.60
2018-11-05T18:59:52.240Z,7.57
2018-11-05T19:02:27.187Z,9.43
2018-11-05T19:04:57.166Z,8.80
2018-11-05T19:07:27.145Z,8.70
2018-11-05T19:09:57.213Z,8.37
2018-11-05T19:12:27.243Z,8.30
2018-11-05T19:14:57.604Z,7.63
2018-11-05T19:17:27.600Z,8.53
2018-11-05T19:19:57.518Z,8.80
2018-11-05T19:22:27.468Z,8.53
2018-11-05T19:24:57.443Z,8.47
2018-11-05T19:27:27.469Z,8.83
2018-11-05T19:29:57.485Z,8.70
2018-11-05T19:32:27.803Z,7.83
2018-11-05T19:34:57.858Z,8.07
2018-11-05T19:37:27.862Z,8.43
2018-11-05T19:39:57.900Z,7.97
2018-11-05T19:42:27.999Z,8.80
2018-11-05T19:44:57.889Z,9.53
2018-11-05T19:47:27.882Z,10.27
2018-11-05T19:49:57.911Z,12.23
2018-11-05T19:52:28.012Z,10.63
2018-11-05T19:54:58.023Z,10.77
2018-11-05T19:57:28.014Z,8.57
2018-11-05T19:59:57.990Z,8.43
2018-11-05T20:02:29.754Z,7.77
2018-11-05T20:04:59.979Z,8.70
2018-11-05T20:07:30.021Z,9.07
2018-11-05T20:09:59.952Z,8.87
2018-11-05T20:12:29.936Z,8.80
2018-11-05T20:15:00.321Z,9.83
2018-11-05T20:17:30.249Z,10.37
2018-11-05T20:20:00.254Z,9.50
2018-11-05T20:22:30.314Z,10.37
2018-11-05T20:25:00.185Z,9.87
2018-11-05T20:27:30.305Z,9.50
2018-11-05T20:30:00.256Z,10.17
2018-11-05T20:32:30.535Z,10.43
2018-11-05T20:35:00.358Z,9.83
2018-11-05T20:37:30.344Z,9.80
2018-11-05T20:40:00.478Z,9.43
2018-11-05T20:42:30.491Z,9.07
2018-11-05T20:45:00.497Z,10.07
2018-11-05T20:47:30.500Z,11.37
2018-11-05T20:50:00.482Z,9.97
2018-11-05T20:52:30.501Z,9.43
2018-11-05T20:55:00.458Z,8.90
2018-11-05T20:57:30.507Z,10.27
2018-11-05T21:00:00.503Z,9.63
2018-11-05T21:02:30.703Z,9.00
2018-11-05T21:05:00.735Z,9.57
2018-11-05T21:07:30.684Z,8.83
2018-11-05T21:10:00.684Z,8.83
2018-11-05T21:12:30.674Z,8.67
2018-11-05T21:15:00.706Z,9.30
2018-11-05T21:17:30.745Z,9.40
2018-11-05T21:20:00.829Z,9.23
2018-11-05T21:22:30.925Z,9.83
2018-11-05T21:25:00.903Z,9.00
2018-11-05T21:27:30.977Z,9.20
2018-11-05T21:30:00.961Z,10.10
2018-11-05T21:32:30.957Z,9.00
2018-11-05T21:35:00.965Z,9.20
2018-11-05T21:37:31.087Z,8.90
2018-11-05T21:40:01.154Z,8.37
2018-11-05T21:42:31.194Z,9.03
2018-11-05T21:45:01.174Z,9.73
2018-11-05T21:47:31.245Z,9.20
2018-11-05T21:50:01.323Z,8.40
2018-11-05T21:52:31.357Z,8.57
2018-11-05T21:55:01.441Z,8.90
2018-11-05T21:57:31.442Z,8.53
2018-11-05T22:00:01.556Z,8.97
2018-11-05T22:02:33.716Z,9.97
2018-11-05T22:05:03.719Z,8.87
2018-11-05T22:07:33.713Z,10.10
2018-11-05T22:10:03.739Z,8.87
2018-11-05T22:12:33.757Z,8.83
2018-11-05T22:15:04.037Z,9.37
2018-11-05T22:17:34.102Z,9.27
2018-11-05T22:20:04.521Z,9.23
2018-11-05T22:22:34.546Z,9.30
2018-11-05T22:25:04.744Z,9.67
2018-11-05T22:27:35.067Z,8.87
2018-11-05T22:30:05.869Z,8.70
2018-11-05T22:32:35.818Z,9.27
2018-11-05T22:35:05.844Z,8.77
2018-11-05T22:37:35.853Z,8.70
2018-11-05T22:40:08.508Z,8.57
2018-11-05T22:42:38.497Z,7.33
2018-11-05T22:45:10.144Z,8.30
2018-11-05T22:47:40.772Z,7.83
2018-11-05T22:50:10.750Z,8.90
2018-11-05T22:52:41.226Z,8.57
2018-11-05T22:55:11.218Z,8.60
2018-11-05T22:57:41.240Z,7.73
2018-11-05T23:00:23.316Z,7.67
2018-11-05T23:02:58.297Z,8.10
2018-11-05T23:05:28.254Z,9.10
2018-11-05T23:07:58.271Z,8.10
2018-11-05T23:10:28.257Z,7.90
2018-11-05T23:12:58.266Z,8.73
2018-11-05T23:15:28.259Z,8.03
2018-11-05T23:17:58.766Z,7.60
2018-11-05T23:20:28.686Z,8.43
2018-11-05T23:22:58.690Z,8.73
2018-11-05T23:25:28.710Z,8.60
2018-11-05T23:27:58.680Z,8.70
2018-11-05T23:30:28.654Z,8.97
2018-11-05T23:32:58.516Z,8.00
2018-11-05T23:35:28.470Z,8.20
2018-11-05T23:37:58.459Z,8.47
2018-11-05T23:40:28.463Z,8.73
2018-11-05T23:42:58.515Z,8.87
2018-11-05T23:45:28.534Z,8.10
2018-11-05T23:47:58.504Z,8.30
2018-11-05T23:50:28.492Z,9.20
2018-11-05T23:52:58.471Z,8.73
2018-11-05T23:55:28.463Z,7.73
2018-11-05T23:57:58.439Z,8.43
